BAW1462 URKA-LTFO
Flight info
| Callsign | BAW1462 |
|---|---|
| Flight time | 0h 56m |
| Altitude | 21000 |
| Route | NALUD2Y NALUD A277 LAMET B950 KARAT B143 OGMOS N166 TUDEK/N0445F350 UR114 FALAZ UN644 ZERGE |
| Aircraft | A320/M-SDE3FGHIRWY/LB1 |
Departure
| Time | 2026-05-01 08:38 |
|---|---|
| Airport | Anapa Vityazevo Airport (URKA) |
Arrival
| Time | 2026-05-01 09:34 |
|---|---|
| Airport | Rize–Artvin Airport (LTFO) |
| Time | Latitude | Longitude | Altitude | Speed | Heading |
|---|---|---|---|---|---|
| 2026-05-01 08:10 | 45.00238 | 37.34227 | 164 ft | 0 kts | 131° |
| 2026-05-01 08:33 | 45.00224 | 37.34252 | 164 ft | 8 kts | 126° |
| 2026-05-01 08:33 | 45.00260 | 37.34339 | 165 ft | 13 kts | 41° |
| 2026-05-01 08:34 | 45.00277 | 37.34441 | 166 ft | 13 kts | 130° |
| 2026-05-01 08:34 | 45.00209 | 37.34411 | 165 ft | 12 kts | 223° |
| 2026-05-01 08:34 | 45.00145 | 37.34330 | 163 ft | 12 kts | 223° |
| 2026-05-01 08:34 | 45.00082 | 37.34248 | 162 ft | 12 kts | 223° |
| 2026-05-01 08:35 | 45.00020 | 37.34167 | 161 ft | 12 kts | 223° |
| 2026-05-01 08:35 | 44.99942 | 37.34067 | 159 ft | 20 kts | 221° |
| 2026-05-01 08:35 | 44.99840 | 37.33938 | 157 ft | 20 kts | 223° |
| 2026-05-01 08:35 | 44.99741 | 37.33809 | 155 ft | 19 kts | 222° |
| 2026-05-01 08:36 | 44.99643 | 37.33684 | 152 ft | 19 kts | 222° |
| 2026-05-01 08:36 | 44.99552 | 37.33586 | 151 ft | 14 kts | 188° |
| 2026-05-01 08:36 | 44.99463 | 37.33619 | 149 ft | 13 kts | 162° |
| 2026-05-01 08:36 | 44.99420 | 37.33715 | 148 ft | 13 kts | 54° |
| 2026-05-01 08:37 | 44.99497 | 37.33814 | 149 ft | 21 kts | 44° |
| 2026-05-01 08:37 | 44.99745 | 37.34134 | 157 ft | 82 kts | 42° |
| 2026-05-01 08:37 | 45.00321 | 37.34874 | 172 ft | 139 kts | 43° |
| 2026-05-01 08:37 | 45.01060 | 37.35824 | 688 ft | 144 kts | 45° |
| 2026-05-01 08:38 | 45.01801 | 37.36765 | 1372 ft | 142 kts | 43° |
| 2026-05-01 08:38 | 45.02568 | 37.37758 | 1695 ft | 160 kts | 44° |
| 2026-05-01 08:38 | 45.03445 | 37.38887 | 1893 ft | 183 kts | 44° |
| 2026-05-01 08:38 | 45.04445 | 37.40172 | 2113 ft | 205 kts | 43° |
| 2026-05-01 08:39 | 45.05555 | 37.41599 | 2300 ft | 225 kts | 43° |
| 2026-05-01 08:39 | 45.06733 | 37.43109 | 2770 ft | 231 kts | 43° |
| 2026-05-01 08:39 | 45.07931 | 37.44646 | 3399 ft | 233 kts | 43° |
| 2026-05-01 08:39 | 45.09129 | 37.46220 | 4024 ft | 237 kts | 49° |
| 2026-05-01 08:40 | 45.09446 | 37.50627 | 5188 ft | 253 kts | 119° |
| 2026-05-01 08:40 | 45.08061 | 37.52212 | 6018 ft | 268 kts | 157° |
| 2026-05-01 08:40 | 45.06192 | 37.52430 | 7028 ft | 275 kts | 185° |
| 2026-05-01 08:41 | 45.04312 | 37.51892 | 8018 ft | 276 kts | 195° |
| 2026-05-01 08:41 | 45.02467 | 37.51118 | 9022 ft | 276 kts | 199° |
| 2026-05-01 08:41 | 45.00634 | 37.50295 | 10002 ft | 277 kts | 200° |
| 2026-05-01 08:41 | 44.98759 | 37.49481 | 10578 ft | 292 kts | 199° |
| 2026-05-01 08:42 | 44.96728 | 37.48651 | 10852 ft | 316 kts | 198° |
| 2026-05-01 08:42 | 44.94567 | 37.47828 | 11409 ft | 325 kts | 197° |
| 2026-05-01 08:42 | 44.92363 | 37.47037 | 12200 ft | 328 kts | 197° |
| 2026-05-01 08:42 | 44.90143 | 37.46263 | 13051 ft | 329 kts | 197° |
| 2026-05-01 08:43 | 44.87913 | 37.45494 | 13902 ft | 330 kts | 197° |
| 2026-05-01 08:43 | 44.85677 | 37.44724 | 14661 ft | 332 kts | 198° |
| 2026-05-01 08:43 | 44.83431 | 37.43948 | 15404 ft | 333 kts | 198° |
| 2026-05-01 08:43 | 44.81181 | 37.43166 | 16112 ft | 334 kts | 198° |
| 2026-05-01 08:44 | 44.78922 | 37.42374 | 16818 ft | 335 kts | 198° |
| 2026-05-01 08:44 | 44.76653 | 37.41579 | 17496 ft | 337 kts | 198° |
| 2026-05-01 08:44 | 44.74375 | 37.40779 | 18181 ft | 338 kts | 198° |
| 2026-05-01 08:44 | 44.72070 | 37.40039 | 18785 ft | 343 kts | 193° |
| 2026-05-01 08:45 | 44.69662 | 37.39859 | 19397 ft | 351 kts | 185° |
| 2026-05-01 08:45 | 44.67215 | 37.39921 | 20006 ft | 353 kts | 185° |
| 2026-05-01 08:45 | 44.64748 | 37.39979 | 20610 ft | 356 kts | 185° |
| 2026-05-01 08:45 | 44.63104 | 37.40016 | 20911 ft | 358 kts | 185° |
| 2026-05-01 08:46 | 44.60615 | 37.40072 | 21044 ft | 358 kts | 185° |
| 2026-05-01 08:46 | 44.57247 | 37.40150 | 21079 ft | 364 kts | 185° |
| 2026-05-01 08:46 | 44.54709 | 37.40212 | 21072 ft | 365 kts | 185° |
| 2026-05-01 08:46 | 44.53027 | 37.40251 | 21069 ft | 365 kts | 185° |
| 2026-05-01 08:47 | 44.50483 | 37.40651 | 21074 ft | 374 kts | 174° |
| 2026-05-01 08:47 | 44.48002 | 37.41884 | 21072 ft | 385 kts | 161° |
| 2026-05-01 08:47 | 44.45733 | 37.43972 | 21069 ft | 398 kts | 147° |
| 2026-05-01 08:47 | 44.43780 | 37.46791 | 21069 ft | 406 kts | 140° |
| 2026-05-01 08:48 | 44.41890 | 37.49730 | 21063 ft | 406 kts | 140° |
| 2026-05-01 08:48 | 44.39996 | 37.52657 | 21065 ft | 406 kts | 140° |
| 2026-05-01 08:48 | 44.38101 | 37.55573 | 21054 ft | 406 kts | 140° |
| 2026-05-01 08:48 | 44.36199 | 37.58496 | 21049 ft | 406 kts | 140° |
| 2026-05-01 08:49 | 44.34299 | 37.61410 | 21048 ft | 406 kts | 140° |
| 2026-05-01 08:49 | 44.32396 | 37.64319 | 21044 ft | 406 kts | 140° |
| 2026-05-01 08:49 | 44.30491 | 37.67226 | 21044 ft | 406 kts | 140° |
| 2026-05-01 08:49 | 44.28585 | 37.70137 | 21041 ft | 406 kts | 140° |
| 2026-05-01 08:50 | 44.26681 | 37.73044 | 21035 ft | 406 kts | 140° |
| 2026-05-01 08:50 | 44.24774 | 37.75949 | 21033 ft | 406 kts | 140° |
| 2026-05-01 08:50 | 44.22868 | 37.78851 | 21032 ft | 406 kts | 140° |
| 2026-05-01 08:50 | 44.20963 | 37.81753 | 21029 ft | 406 kts | 140° |
| 2026-05-01 08:51 | 44.19053 | 37.84653 | 21027 ft | 406 kts | 140° |
| 2026-05-01 08:51 | 44.17134 | 37.87538 | 21024 ft | 406 kts | 140° |
| 2026-05-01 08:51 | 44.15207 | 37.90420 | 21024 ft | 406 kts | 140° |
| 2026-05-01 08:51 | 44.13282 | 37.93295 | 21027 ft | 406 kts | 140° |
| 2026-05-01 08:52 | 44.11354 | 37.96173 | 21022 ft | 407 kts | 140° |
| 2026-05-01 08:52 | 44.09424 | 37.99051 | 21024 ft | 407 kts | 140° |
| 2026-05-01 08:52 | 44.07492 | 38.01931 | 21019 ft | 407 kts | 140° |
| 2026-05-01 08:52 | 44.05559 | 38.04811 | 21017 ft | 408 kts | 140° |
| 2026-05-01 08:53 | 44.03622 | 38.07692 | 21016 ft | 408 kts | 140° |
| 2026-05-01 08:53 | 44.01685 | 38.10570 | 21015 ft | 408 kts | 140° |
| 2026-05-01 08:53 | 43.99746 | 38.13449 | 21017 ft | 408 kts | 140° |
| 2026-05-01 08:53 | 43.97804 | 38.16328 | 21013 ft | 409 kts | 140° |
| 2026-05-01 08:54 | 43.95860 | 38.19205 | 21014 ft | 409 kts | 140° |
| 2026-05-01 08:54 | 43.93915 | 38.22082 | 21012 ft | 409 kts | 140° |
| 2026-05-01 08:54 | 43.91967 | 38.24960 | 21011 ft | 409 kts | 140° |
| 2026-05-01 08:54 | 43.90018 | 38.27840 | 21009 ft | 410 kts | 140° |
| 2026-05-01 08:55 | 43.88066 | 38.30729 | 21012 ft | 410 kts | 140° |
| 2026-05-01 08:55 | 43.86121 | 38.33625 | 21014 ft | 411 kts | 139° |
| 2026-05-01 08:55 | 43.84178 | 38.36525 | 21013 ft | 411 kts | 139° |
| 2026-05-01 08:55 | 43.82236 | 38.39428 | 21013 ft | 411 kts | 139° |
| 2026-05-01 08:56 | 43.80293 | 38.42329 | 21012 ft | 411 kts | 139° |
| 2026-05-01 08:56 | 43.78348 | 38.45223 | 21013 ft | 411 kts | 139° |
| 2026-05-01 08:56 | 43.76397 | 38.48114 | 21012 ft | 411 kts | 140° |
| 2026-05-01 08:56 | 43.74447 | 38.51002 | 21011 ft | 411 kts | 139° |
| 2026-05-01 08:57 | 43.72497 | 38.53888 | 21006 ft | 411 kts | 139° |
| 2026-05-01 08:57 | 43.70546 | 38.56770 | 21006 ft | 411 kts | 139° |
| 2026-05-01 08:57 | 43.68596 | 38.59647 | 21008 ft | 411 kts | 139° |
| 2026-05-01 08:57 | 43.66643 | 38.62527 | 21001 ft | 411 kts | 139° |
| 2026-05-01 08:58 | 43.64690 | 38.65405 | 21008 ft | 411 kts | 139° |
| 2026-05-01 08:58 | 43.62738 | 38.68277 | 21001 ft | 410 kts | 139° |
| 2026-05-01 08:58 | 43.60785 | 38.71151 | 21004 ft | 411 kts | 139° |
| 2026-05-01 08:58 | 43.58833 | 38.74023 | 21002 ft | 411 kts | 139° |
| 2026-05-01 08:59 | 43.56879 | 38.76896 | 21001 ft | 410 kts | 139° |
| 2026-05-01 08:59 | 43.54949 | 38.79728 | 20998 ft | 410 kts | 140° |
| 2026-05-01 08:59 | 43.52992 | 38.82591 | 21002 ft | 410 kts | 140° |
| 2026-05-01 08:59 | 43.51036 | 38.85451 | 20999 ft | 410 kts | 140° |
| 2026-05-01 09:00 | 43.49075 | 38.88313 | 20993 ft | 410 kts | 140° |
| 2026-05-01 09:00 | 43.47118 | 38.91172 | 20997 ft | 410 kts | 139° |
| 2026-05-01 09:00 | 43.45164 | 38.94033 | 20991 ft | 410 kts | 139° |
| 2026-05-01 09:00 | 43.43206 | 38.96892 | 20986 ft | 410 kts | 140° |
| 2026-05-01 09:01 | 43.41247 | 38.99742 | 20989 ft | 410 kts | 140° |
| 2026-05-01 09:01 | 43.39287 | 39.02592 | 20987 ft | 410 kts | 140° |
| 2026-05-01 09:01 | 43.37285 | 39.05367 | 20981 ft | 406 kts | 145° |
| 2026-05-01 09:01 | 43.35030 | 39.07625 | 20979 ft | 397 kts | 156° |
| 2026-05-01 09:02 | 43.32569 | 39.09254 | 20984 ft | 390 kts | 166° |
| 2026-05-01 09:02 | 43.29985 | 39.10249 | 20982 ft | 383 kts | 175° |
| 2026-05-01 09:02 | 43.27369 | 39.10949 | 20983 ft | 383 kts | 175° |
| 2026-05-01 09:02 | 43.24752 | 39.11655 | 20990 ft | 383 kts | 174° |
| 2026-05-01 09:03 | 43.22133 | 39.12369 | 20981 ft | 384 kts | 174° |
| 2026-05-01 09:03 | 43.19515 | 39.13086 | 20981 ft | 384 kts | 174° |
| 2026-05-01 09:03 | 43.16893 | 39.13808 | 20979 ft | 385 kts | 174° |
| 2026-05-01 09:03 | 43.14268 | 39.14530 | 20977 ft | 385 kts | 174° |
| 2026-05-01 09:04 | 43.11643 | 39.15248 | 20978 ft | 385 kts | 174° |
| 2026-05-01 09:04 | 43.09051 | 39.15953 | 20979 ft | 385 kts | 174° |
| 2026-05-01 09:04 | 43.06424 | 39.16666 | 20977 ft | 385 kts | 174° |
| 2026-05-01 09:04 | 43.03795 | 39.17383 | 20972 ft | 385 kts | 174° |
| 2026-05-01 09:05 | 43.01168 | 39.18097 | 20972 ft | 385 kts | 174° |
| 2026-05-01 09:05 | 42.98537 | 39.18808 | 20976 ft | 386 kts | 174° |
| 2026-05-01 09:05 | 42.95904 | 39.19521 | 20975 ft | 386 kts | 174° |
| 2026-05-01 09:05 | 42.93270 | 39.20236 | 20974 ft | 386 kts | 174° |
| 2026-05-01 09:06 | 42.90639 | 39.20946 | 20976 ft | 386 kts | 174° |
| 2026-05-01 09:06 | 42.88004 | 39.21655 | 20975 ft | 386 kts | 174° |
| 2026-05-01 09:06 | 42.85370 | 39.22369 | 20977 ft | 386 kts | 174° |
| 2026-05-01 09:06 | 42.82737 | 39.23087 | 20978 ft | 386 kts | 174° |
| 2026-05-01 09:07 | 42.80106 | 39.23806 | 20979 ft | 386 kts | 174° |
| 2026-05-01 09:07 | 42.77472 | 39.24521 | 20981 ft | 386 kts | 174° |
| 2026-05-01 09:07 | 42.74841 | 39.25232 | 20984 ft | 386 kts | 174° |
| 2026-05-01 09:07 | 42.72255 | 39.26311 | 20978 ft | 394 kts | 161° |
| 2026-05-01 09:08 | 42.69890 | 39.28269 | 20980 ft | 405 kts | 146° |
| 2026-05-01 09:08 | 42.67933 | 39.31074 | 20978 ft | 415 kts | 131° |
| 2026-05-01 09:08 | 42.66555 | 39.34564 | 20974 ft | 425 kts | 115° |
| 2026-05-01 09:08 | 42.65670 | 39.38419 | 20968 ft | 427 kts | 113° |
| 2026-05-01 09:09 | 42.64412 | 39.42004 | 20964 ft | 417 kts | 129° |
| 2026-05-01 09:09 | 42.62537 | 39.44917 | 20965 ft | 405 kts | 145° |
| 2026-05-01 09:09 | 42.60223 | 39.46990 | 20964 ft | 394 kts | 160° |
| 2026-05-01 09:09 | 42.57662 | 39.48137 | 20965 ft | 384 kts | 175° |
| 2026-05-01 09:10 | 42.55033 | 39.48344 | 20964 ft | 375 kts | 189° |
| 2026-05-01 09:10 | 42.52461 | 39.47835 | 20967 ft | 373 kts | 193° |
| 2026-05-01 09:10 | 42.49900 | 39.47255 | 20963 ft | 373 kts | 193° |
| 2026-05-01 09:10 | 42.47339 | 39.46678 | 20965 ft | 374 kts | 193° |
| 2026-05-01 09:11 | 42.44772 | 39.46108 | 20970 ft | 374 kts | 193° |
| 2026-05-01 09:11 | 42.42205 | 39.45543 | 20970 ft | 374 kts | 193° |
| 2026-05-01 09:11 | 42.39632 | 39.44981 | 20969 ft | 374 kts | 193° |
| 2026-05-01 09:11 | 42.37061 | 39.44416 | 20971 ft | 374 kts | 193° |
| 2026-05-01 09:12 | 42.34493 | 39.43846 | 20972 ft | 374 kts | 193° |
| 2026-05-01 09:12 | 42.31919 | 39.43275 | 20971 ft | 375 kts | 193° |
| 2026-05-01 09:12 | 42.29348 | 39.42707 | 20972 ft | 375 kts | 193° |
| 2026-05-01 09:12 | 42.26770 | 39.42140 | 20974 ft | 375 kts | 193° |
| 2026-05-01 09:13 | 42.24194 | 39.41575 | 20975 ft | 375 kts | 193° |
| 2026-05-01 09:13 | 42.21617 | 39.41009 | 20971 ft | 375 kts | 193° |
| 2026-05-01 09:13 | 42.19007 | 39.40664 | 20969 ft | 379 kts | 184° |
| 2026-05-01 09:13 | 42.16363 | 39.40997 | 20970 ft | 385 kts | 173° |
| 2026-05-01 09:14 | 42.13753 | 39.41853 | 20970 ft | 387 kts | 170° |
| 2026-05-01 09:14 | 42.11142 | 39.42740 | 20968 ft | 387 kts | 170° |
| 2026-05-01 09:14 | 42.08523 | 39.43621 | 20964 ft | 387 kts | 170° |
| 2026-05-01 09:14 | 42.05907 | 39.44496 | 20965 ft | 388 kts | 170° |
| 2026-05-01 09:15 | 42.03290 | 39.45373 | 20963 ft | 388 kts | 170° |
| 2026-05-01 09:15 | 42.00670 | 39.46249 | 20964 ft | 388 kts | 170° |
| 2026-05-01 09:15 | 41.98053 | 39.47124 | 20970 ft | 388 kts | 170° |
| 2026-05-01 09:15 | 41.95430 | 39.47998 | 20970 ft | 388 kts | 170° |
| 2026-05-01 09:16 | 41.92811 | 39.48870 | 20987 ft | 388 kts | 170° |
| 2026-05-01 09:16 | 41.90212 | 39.49876 | 20980 ft | 392 kts | 162° |
| 2026-05-01 09:16 | 41.87832 | 39.51719 | 20978 ft | 401 kts | 146° |
| 2026-05-01 09:17 | 41.84586 | 39.57865 | 20885 ft | 414 kts | 112° |
| 2026-05-01 09:17 | 41.84070 | 39.61632 | 20632 ft | 410 kts | 96° |
| 2026-05-01 09:17 | 41.83822 | 39.69183 | 20124 ft | 403 kts | 96° |
| 2026-05-01 09:18 | 41.83692 | 39.72928 | 19875 ft | 401 kts | 96° |
| 2026-05-01 09:18 | 41.83420 | 39.80362 | 19382 ft | 398 kts | 96° |
| 2026-05-01 09:19 | 41.83143 | 39.87740 | 18898 ft | 394 kts | 96° |
| 2026-05-01 09:19 | 41.83002 | 39.91399 | 18660 ft | 393 kts | 96° |
| 2026-05-01 09:19 | 41.82861 | 39.95049 | 18425 ft | 391 kts | 96° |
| 2026-05-01 09:20 | 41.82547 | 40.02305 | 17902 ft | 386 kts | 101° |
| 2026-05-01 09:20 | 41.80386 | 40.08552 | 17368 ft | 364 kts | 138° |
| 2026-05-01 09:21 | 41.76182 | 40.11807 | 16839 ft | 345 kts | 172° |
| 2026-05-01 09:21 | 41.73825 | 40.12070 | 16578 ft | 338 kts | 186° |
| 2026-05-01 09:21 | 41.69137 | 40.11721 | 16066 ft | 336 kts | 186° |
| 2026-05-01 09:22 | 41.64484 | 40.11380 | 15566 ft | 334 kts | 186° |
| 2026-05-01 09:22 | 41.59858 | 40.11082 | 15071 ft | 332 kts | 182° |
| 2026-05-01 09:23 | 41.57561 | 40.11439 | 14826 ft | 335 kts | 170° |
| 2026-05-01 09:23 | 41.53321 | 40.14039 | 14327 ft | 336 kts | 152° |
| 2026-05-01 09:24 | 41.49364 | 40.17286 | 13441 ft | 332 kts | 152° |
| 2026-05-01 09:24 | 41.47396 | 40.18888 | 12983 ft | 330 kts | 152° |
| 2026-05-01 09:24 | 41.43505 | 40.22056 | 12088 ft | 326 kts | 152° |
| 2026-05-01 09:25 | 41.39688 | 40.25168 | 11195 ft | 322 kts | 152° |
| 2026-05-01 09:25 | 41.35892 | 40.28261 | 10403 ft | 315 kts | 152° |
| 2026-05-01 09:26 | 41.34055 | 40.29758 | 10283 ft | 304 kts | 152° |
| 2026-05-01 09:26 | 41.30576 | 40.32590 | 9942 ft | 286 kts | 153° |
| 2026-05-01 09:26 | 41.28897 | 40.33950 | 9832 ft | 283 kts | 153° |
| 2026-05-01 09:27 | 41.25516 | 40.36681 | 8921 ft | 285 kts | 152° |
| 2026-05-01 09:27 | 41.23835 | 40.38042 | 8603 ft | 281 kts | 152° |
| 2026-05-01 09:27 | 41.22171 | 40.39393 | 8203 ft | 280 kts | 152° |
| 2026-05-01 09:28 | 41.20550 | 40.40818 | 7801 ft | 281 kts | 143° |
| 2026-05-01 09:28 | 41.19195 | 40.42697 | 7401 ft | 283 kts | 134° |
| 2026-05-01 09:28 | 41.17916 | 40.44676 | 6997 ft | 282 kts | 134° |
| 2026-05-01 09:28 | 41.16642 | 40.46638 | 6619 ft | 280 kts | 134° |
| 2026-05-01 09:29 | 41.14077 | 40.50573 | 5568 ft | 286 kts | 133° |
| 2026-05-01 09:29 | 41.12793 | 40.52544 | 5343 ft | 277 kts | 133° |
| 2026-05-01 09:30 | 41.10994 | 40.56720 | 5084 ft | 258 kts | 96° |
| 2026-05-01 09:30 | 41.11230 | 40.59070 | 4710 ft | 257 kts | 73° |
| 2026-05-01 09:30 | 41.12394 | 40.63357 | 3765 ft | 231 kts | 70° |
| 2026-05-01 09:31 | 41.12897 | 40.65269 | 3612 ft | 211 kts | 71° |
| 2026-05-01 09:31 | 41.13371 | 40.67092 | 3521 ft | 208 kts | 71° |
| 2026-05-01 09:31 | 41.14242 | 40.70443 | 3008 ft | 181 kts | 70° |
| 2026-05-01 09:32 | 41.14649 | 40.72011 | 2475 ft | 180 kts | 71° |
| 2026-05-01 09:32 | 41.15454 | 40.75082 | 1459 ft | 173 kts | 70° |
| 2026-05-01 09:32 | 41.15838 | 40.76560 | 1114 ft | 163 kts | 70° |
| 2026-05-01 09:33 | 41.16183 | 40.77918 | 908 ft | 148 kts | 69° |
| 2026-05-01 09:33 | 41.16403 | 40.78772 | 759 ft | 141 kts | 70° |
| 2026-05-01 09:33 | 41.17013 | 40.81149 | 373 ft | 134 kts | 69° |
| 2026-05-01 09:34 | 41.17311 | 40.82315 | 213 ft | 133 kts | 68° |
| 2026-05-01 09:34 | 41.17614 | 40.83468 | 44 ft | 130 kts | 68° |
| 2026-05-01 09:34 | 41.17961 | 40.84804 | 23 ft | 24 kts | 69° |
| 2026-05-01 09:35 | 41.17968 | 40.84880 | 23 ft | 2 kts | 34° |
| 2026-05-01 09:35 | 41.17957 | 40.84785 | 24 ft | 16 kts | 261° |
| 2026-05-01 09:35 | 41.17928 | 40.84649 | 25 ft | 14 kts | 250° |
| 2026-05-01 09:36 | 41.17891 | 40.84530 | 25 ft | 14 kts | 247° |
| 2026-05-01 09:36 | 41.17840 | 40.84423 | 24 ft | 13 kts | 206° |
| 2026-05-01 09:36 | 41.17761 | 40.84443 | 27 ft | 11 kts | 161° |
| 2026-05-01 09:36 | 41.17693 | 40.84474 | 27 ft | 10 kts | 161° |
| 2026-05-01 09:37 | 41.17630 | 40.84502 | 28 ft | 9 kts | 166° |
| 2026-05-01 09:37 | 41.17578 | 40.84388 | 27 ft | 7 kts | 252° |
| 2026-05-01 09:37 | 41.17552 | 40.84335 | 27 ft | 6 kts | 199° |
| 2026-05-01 09:38 | 41.17501 | 40.84361 | 25 ft | 0 kts | 162° |